createdAt,value
2023-05-19T00:02:05.992Z,100.00
2023-05-19T00:04:35.496Z,100.00
2023-05-19T00:07:04.153Z,100.00
2023-05-19T00:09:32.559Z,100.00
2023-05-19T00:12:01.416Z,100.00
2023-05-19T00:14:29.808Z,100.00
2023-05-19T00:16:58.490Z,100.00
2023-05-19T00:19:32.209Z,100.00
2023-05-19T00:22:00.466Z,100.00
2023-05-19T00:24:28.973Z,100.00
2023-05-19T00:26:57.134Z,100.00
2023-05-19T00:29:25.843Z,100.00
2023-05-19T00:31:54.415Z,100.00
2023-05-19T00:34:22.533Z,100.00
2023-05-19T00:36:51.168Z,100.00
2023-05-19T00:39:19.518Z,100.00
2023-05-19T00:41:47.656Z,100.00
2023-05-19T00:44:15.978Z,100.00
2023-05-19T00:46:44.399Z,100.00
2023-05-19T00:49:12.820Z,100.00
2023-05-19T00:51:42.216Z,100.00
2023-05-19T00:54:10.794Z,100.00
2023-05-19T00:56:39.397Z,100.00
2023-05-19T00:59:08.113Z,100.00
2023-05-19T01:01:37.226Z,100.00
2023-05-19T01:04:09.930Z,100.00
2023-05-19T01:06:39.091Z,100.00
2023-05-19T01:09:07.709Z,100.00
2023-05-19T01:11:36.011Z,100.00
2023-05-19T01:14:04.643Z,100.00
2023-05-19T01:17:11.067Z,100.00
2023-05-19T01:19:43.551Z,100.00
2023-05-19T01:22:27.070Z,100.00
2023-05-19T01:25:11.112Z,100.00
2023-05-19T01:27:47.181Z,100.00
2023-05-19T01:30:16.883Z,100.00
2023-05-19T01:32:48.094Z,100.00
2023-05-19T01:35:16.945Z,100.00
2023-05-19T01:37:46.867Z,100.00
2023-05-19T01:40:15.613Z,100.00
2023-05-19T01:42:45.558Z,100.00
2023-05-19T01:45:13.893Z,100.00
2023-05-19T01:47:44.592Z,100.00
2023-05-19T01:50:13.553Z,100.00
2023-05-19T01:52:41.810Z,100.00
2023-05-19T01:55:10.312Z,100.00
2023-05-19T01:58:10.841Z,100.00
2023-05-19T02:01:03.216Z,100.00
2023-05-19T02:03:31.758Z,100.00
2023-05-19T02:06:22.845Z,100.00
2023-05-19T02:09:13.287Z,100.00
2023-05-19T02:12:20.083Z,100.00
2023-05-19T02:15:02.567Z,100.00
2023-05-19T02:17:33.273Z,100.00
2023-05-19T02:20:02.492Z,100.00
2023-05-19T02:22:31.569Z,100.00
2023-05-19T02:24:59.786Z,100.00
2023-05-19T02:27:28.280Z,100.00
2023-05-19T02:29:56.794Z,100.00
2023-05-19T02:32:24.980Z,100.00
2023-05-19T02:34:53.358Z,100.00
2023-05-19T02:37:23.878Z,100.00
2023-05-19T02:39:52.058Z,100.00
2023-05-19T02:42:20.797Z,100.00
2023-05-19T02:44:49.906Z,100.00
2023-05-19T02:47:18.901Z,100.00
2023-05-19T02:49:47.216Z,100.00
2023-05-19T02:52:16.682Z,100.00
2023-05-19T02:54:44.939Z,100.00
2023-05-19T02:57:13.313Z,100.00
2023-05-19T02:59:43.127Z,100.00
2023-05-19T03:02:11.525Z,100.00
2023-05-19T03:04:42.392Z,100.00
2023-05-19T03:07:10.865Z,100.00
2023-05-19T03:09:39.249Z,100.00
2023-05-19T03:12:08.092Z,100.00
2023-05-19T03:14:39.300Z,100.00
2023-05-19T03:17:08.249Z,100.00
2023-05-19T03:19:36.846Z,100.00
2023-05-19T03:22:05.226Z,100.00
2023-05-19T03:24:34.429Z,100.00
2023-05-19T03:27:05.920Z,100.00
2023-05-19T03:29:34.494Z,100.00
2023-05-19T03:32:03.815Z,100.00
2023-05-19T03:34:32.674Z,100.00
2023-05-19T03:37:00.936Z,100.00
2023-05-19T03:39:29.269Z,100.00
2023-05-19T03:41:57.465Z,100.00
2023-05-19T03:44:25.640Z,100.00
2023-05-19T03:46:54.078Z,100.00
2023-05-19T03:49:23.439Z,100.00
2023-05-19T03:52:09.887Z,100.00
2023-05-19T03:54:39.512Z,100.00
2023-05-19T03:57:07.906Z,100.00
2023-05-19T03:59:37.252Z,100.00
2023-05-19T04:02:05.745Z,100.00
2023-05-19T04:04:34.269Z,100.00
2023-05-19T04:07:02.492Z,100.00
2023-05-19T04:09:32.450Z,100.00
2023-05-19T04:12:05.886Z,100.00
2023-05-19T04:14:34.002Z,100.00
2023-05-19T04:17:02.311Z,100.00
2023-05-19T04:19:30.608Z,100.00
2023-05-19T04:21:58.891Z,100.00
2023-05-19T04:24:27.153Z,100.00
2023-05-19T04:26:56.204Z,100.00
2023-05-19T04:29:24.365Z,100.00
2023-05-19T04:31:52.829Z,100.00
2023-05-19T04:34:21.171Z,100.00
2023-05-19T04:36:51.678Z,100.00
2023-05-19T04:39:22.388Z,100.00
2023-05-19T04:41:50.809Z,100.00
2023-05-19T04:44:19.260Z,100.00
2023-05-19T04:46:48.234Z,100.00
2023-05-19T04:49:16.557Z,100.00
2023-05-19T04:51:46.047Z,100.00
2023-05-19T04:54:15.194Z,100.00
2023-05-19T04:56:43.833Z,100.00
2023-05-19T04:59:12.687Z,100.00
2023-05-19T05:01:43.203Z,100.00
2023-05-19T05:04:12.899Z,100.00
2023-05-19T05:06:47.743Z,100.00
2023-05-19T05:09:16.522Z,100.00
2023-05-19T05:11:45.491Z,100.00
2023-05-19T05:14:13.933Z,100.00
2023-05-19T05:16:43.609Z,100.00
2023-05-19T05:19:13.168Z,100.00
2023-05-19T05:21:41.839Z,100.00
2023-05-19T05:24:11.798Z,100.00
2023-05-19T05:26:41.429Z,100.00
2023-05-19T05:29:10.324Z,100.00
2023-05-19T05:31:39.076Z,100.00
2023-05-19T05:34:07.938Z,100.00
2023-05-19T05:36:35.986Z,100.00
2023-05-19T05:39:05.680Z,100.00
2023-05-19T05:41:36.964Z,100.00
2023-05-19T05:44:05.541Z,100.00
2023-05-19T05:46:34.586Z,100.00
2023-05-19T05:49:03.398Z,100.00
2023-05-19T05:51:33.067Z,100.00
2023-05-19T05:54:02.939Z,100.00
2023-05-19T05:56:33.903Z,100.00
2023-05-19T05:59:02.895Z,100.00
2023-05-19T06:01:31.596Z,100.00
2023-05-19T06:04:01.357Z,100.00
2023-05-19T06:06:31.570Z,100.00
2023-05-19T06:09:00.489Z,100.00
2023-05-19T06:11:29.299Z,100.00
2023-05-19T06:13:58.008Z,100.00
2023-05-19T06:16:30.949Z,100.00
2023-05-19T06:18:59.305Z,100.00
2023-05-19T06:21:27.531Z,100.00
2023-05-19T06:23:55.912Z,100.00
2023-05-19T06:26:24.188Z,100.00
2023-05-19T06:28:52.285Z,100.00
2023-05-19T06:31:22.258Z,100.00
2023-05-19T06:33:51.164Z,100.00
2023-05-19T06:36:19.546Z,100.00
2023-05-19T06:38:48.308Z,100.00
2023-05-19T06:41:17.223Z,100.00
2023-05-19T06:43:48.341Z,100.00
2023-05-19T06:46:17.891Z,100.00
2023-05-19T06:48:46.261Z,100.00
2023-05-19T06:51:16.781Z,100.00
2023-05-19T06:53:45.562Z,100.00
2023-05-19T06:56:15.110Z,100.00
2023-05-19T06:58:43.733Z,100.00
2023-05-19T07:01:12.594Z,100.00
2023-05-19T07:03:41.083Z,100.00
2023-05-19T07:06:10.144Z,100.00
2023-05-19T07:08:39.200Z,97.56
2023-05-19T07:11:07.776Z,95.49
2023-05-19T07:13:36.097Z,91.36
2023-05-19T07:16:05.710Z,91.00
2023-05-19T07:18:34.382Z,96.64
2023-05-19T07:21:02.424Z,96.71
2023-05-19T07:23:31.097Z,98.10
2023-05-19T07:25:59.394Z,98.22
2023-05-19T07:28:27.458Z,96.10
2023-05-19T07:30:56.286Z,95.39
2023-05-19T07:33:24.592Z,94.75
2023-05-19T07:35:53.562Z,95.73
2023-05-19T07:38:21.957Z,100.00
2023-05-19T07:40:50.130Z,100.00
2023-05-19T07:43:18.308Z,100.00
2023-05-19T07:45:46.834Z,95.66
2023-05-19T07:48:15.224Z,97.98
2023-05-19T07:50:43.540Z,91.76
2023-05-19T07:53:11.991Z,96.70
2023-05-19T07:55:40.094Z,96.34
2023-05-19T07:58:08.252Z,94.25
2023-05-19T08:00:36.895Z,90.02
2023-05-19T08:03:05.572Z,94.34
2023-05-19T08:05:35.084Z,92.54
2023-05-19T08:08:03.614Z,92.45
2023-05-19T08:10:32.533Z,89.62
2023-05-19T08:13:00.757Z,90.43
2023-05-19T08:15:29.037Z,91.38
2023-05-19T08:17:57.498Z,89.83
2023-05-19T08:20:25.823Z,84.31
2023-05-19T08:22:53.978Z,82.57
2023-05-19T08:25:22.508Z,85.63
2023-05-19T08:27:50.614Z,80.55
2023-05-19T08:30:18.919Z,79.88
2023-05-19T08:32:48.613Z,78.99
2023-05-19T08:35:16.814Z,77.88
2023-05-19T08:37:45.000Z,78.17
2023-05-19T08:40:18.387Z,79.83
2023-05-19T08:42:46.963Z,82.63
2023-05-19T08:45:15.801Z,76.50
2023-05-19T08:47:46.900Z,74.95
2023-05-19T08:50:27.606Z,76.64
2023-05-19T08:53:01.698Z,77.45
2023-05-19T08:55:55.421Z,77.95
2023-05-19T08:58:23.630Z,80.40
2023-05-19T09:00:53.704Z,82.13
2023-05-19T09:03:23.884Z,79.02
2023-05-19T09:05:52.902Z,82.41
2023-05-19T09:08:21.028Z,88.22
2023-05-19T09:10:49.549Z,80.56
2023-05-19T09:13:18.059Z,84.37
2023-05-19T09:15:47.027Z,83.50
2023-05-19T09:18:15.473Z,86.93
2023-05-19T09:20:45.024Z,93.67
2023-05-19T09:23:15.120Z,85.77
2023-05-19T09:25:53.782Z,78.55
2023-05-19T09:28:28.161Z,80.45
2023-05-19T09:31:03.840Z,76.42
2023-05-19T09:33:37.821Z,80.41
2023-05-19T09:36:08.515Z,73.89
2023-05-19T09:38:38.474Z,74.59
2023-05-19T09:41:08.925Z,75.77
2023-05-19T09:43:37.013Z,72.58
2023-05-19T09:46:06.386Z,75.68
2023-05-19T09:48:36.563Z,69.38
2023-05-19T09:51:08.077Z,75.07
2023-05-19T09:53:36.744Z,72.70
2023-05-19T09:56:05.238Z,72.19
2023-05-19T09:58:37.215Z,74.92
2023-05-19T10:01:06.461Z,74.61
2023-05-19T10:03:35.342Z,74.23
2023-05-19T10:06:09.269Z,76.42
2023-05-19T10:08:39.706Z,77.87
2023-05-19T10:11:10.296Z,77.11
2023-05-19T10:13:39.952Z,73.09
2023-05-19T10:16:09.583Z,77.33
2023-05-19T10:18:39.954Z,66.02
2023-05-19T10:21:09.630Z,75.64
2023-05-19T10:23:38.606Z,68.85
2023-05-19T10:26:07.919Z,68.92
2023-05-19T10:28:39.506Z,70.77
2023-05-19T10:31:11.570Z,69.76
2023-05-19T10:33:48.611Z,69.75
2023-05-19T10:36:39.554Z,73.63
2023-05-19T10:39:16.700Z,71.41
2023-05-19T10:42:02.073Z,73.70
2023-05-19T10:44:52.364Z,74.22
2023-05-19T10:47:27.364Z,78.01
2023-05-19T10:49:56.230Z,77.00
2023-05-19T10:52:29.846Z,72.68
2023-05-19T10:54:58.491Z,76.88
2023-05-19T10:57:28.214Z,76.68
2023-05-19T10:59:57.424Z,76.72
2023-05-19T11:02:42.080Z,68.92
2023-05-19T11:05:20.477Z,77.16
2023-05-19T11:07:57.060Z,73.34
2023-05-19T11:10:25.467Z,72.71
2023-05-19T11:12:58.241Z,74.18
2023-05-19T11:15:30.473Z,66.87
2023-05-19T11:18:01.883Z,68.64
2023-05-19T11:20:35.145Z,67.18
2023-05-19T11:23:08.927Z,70.72
2023-05-19T11:25:47.622Z,67.77
2023-05-19T11:28:20.840Z,76.38
2023-05-19T11:30:52.612Z,68.80
2023-05-19T11:33:21.749Z,77.25
2023-05-19T11:35:51.253Z,68.88
2023-05-19T11:38:19.900Z,74.18
2023-05-19T11:40:49.927Z,63.63
2023-05-19T11:43:18.639Z,68.16
2023-05-19T11:45:47.144Z,68.28
2023-05-19T11:48:16.051Z,66.70
2023-05-19T11:50:44.378Z,63.25
2023-05-19T11:53:16.837Z,63.05
2023-05-19T11:55:46.952Z,65.26
2023-05-19T11:58:15.868Z,68.64
2023-05-19T12:00:46.377Z,63.66
2023-05-19T12:03:15.226Z,63.93
2023-05-19T12:05:46.803Z,69.71
2023-05-19T12:08:18.589Z,70.67
2023-05-19T12:10:51.077Z,67.99
2023-05-19T12:13:21.050Z,67.78
2023-05-19T12:15:52.288Z,67.76
2023-05-19T12:18:21.471Z,65.50
2023-05-19T12:20:49.839Z,67.70
2023-05-19T12:23:18.116Z,64.14
2023-05-19T12:25:46.660Z,62.74
2023-05-19T12:28:16.598Z,67.72
2023-05-19T12:30:49.376Z,67.19
2023-05-19T12:33:19.625Z,69.70
2023-05-19T12:35:49.996Z,69.08
2023-05-19T12:38:19.877Z,72.38
2023-05-19T12:40:49.696Z,65.18
2023-05-19T12:43:22.913Z,68.00
2023-05-19T12:45:52.567Z,67.32
2023-05-19T12:48:24.291Z,62.78
2023-05-19T12:50:56.604Z,65.61
2023-05-19T12:53:27.280Z,70.47
2023-05-19T12:55:56.146Z,70.05
2023-05-19T12:58:24.675Z,65.55
2023-05-19T13:00:59.799Z,64.96
2023-05-19T13:03:28.523Z,64.27
2023-05-19T13:05:56.885Z,66.68
2023-05-19T13:08:25.058Z,64.00
2023-05-19T13:10:53.697Z,67.50
2023-05-19T13:13:22.129Z,64.19
2023-05-19T13:15:50.345Z,68.55
2023-05-19T13:18:18.744Z,65.67
2023-05-19T13:20:50.125Z,68.85
2023-05-19T13:23:19.337Z,68.50
2023-05-19T13:25:48.364Z,68.41
2023-05-19T13:28:16.514Z,66.79
2023-05-19T13:30:45.800Z,65.14
2023-05-19T13:33:14.528Z,64.10
2023-05-19T13:35:42.946Z,63.49
2023-05-19T13:38:11.727Z,61.25
2023-05-19T13:40:41.237Z,65.64
2023-05-19T13:43:09.796Z,66.92
2023-05-19T13:45:38.741Z,66.52
2023-05-19T13:48:07.818Z,67.26
2023-05-19T13:50:36.554Z,63.36
2023-05-19T13:53:05.245Z,64.83
2023-05-19T13:55:33.452Z,65.04
2023-05-19T13:58:01.666Z,64.75
2023-05-19T14:00:32.025Z,61.90
2023-05-19T14:03:00.919Z,62.10
2023-05-19T14:05:29.298Z,61.96
2023-05-19T14:07:58.101Z,63.00
2023-05-19T14:10:27.174Z,63.98
2023-05-19T14:15:38.206Z,64.01
2023-05-19T14:18:07.077Z,62.82
2023-05-19T14:20:36.173Z,60.64
2023-05-19T14:23:05.026Z,64.82
2023-05-19T14:25:33.119Z,64.33
2023-05-19T14:28:01.656Z,63.88
2023-05-19T14:30:30.197Z,63.81
2023-05-19T14:32:58.457Z,62.50
2023-05-19T14:35:27.293Z,63.25
2023-05-19T14:37:55.746Z,61.62
2023-05-19T14:40:23.987Z,62.14
2023-05-19T14:42:52.246Z,63.36
2023-05-19T14:45:20.699Z,65.41
2023-05-19T14:47:49.354Z,62.58
2023-05-19T14:50:17.620Z,63.79
2023-05-19T14:52:46.159Z,63.12
2023-05-19T14:55:14.299Z,63.04
2023-05-19T14:57:42.738Z,62.15
2023-05-19T15:00:12.153Z,63.92
2023-05-19T15:02:40.514Z,66.77
2023-05-19T15:05:09.218Z,65.59
2023-05-19T15:07:38.092Z,64.60
2023-05-19T15:10:07.761Z,63.82
2023-05-19T15:12:36.462Z,64.38
2023-05-19T15:15:05.228Z,66.03
2023-05-19T15:17:34.073Z,65.55
2023-05-19T15:20:02.688Z,63.75
2023-05-19T15:22:31.237Z,65.88
2023-05-19T15:24:59.462Z,65.07
2023-05-19T15:27:27.679Z,64.09
2023-05-19T15:29:56.253Z,63.73
2023-05-19T15:32:24.558Z,63.25
2023-05-19T15:34:52.738Z,66.25
2023-05-19T15:37:21.301Z,65.81
2023-05-19T15:39:49.544Z,67.35
2023-05-19T15:42:17.725Z,63.40
2023-05-19T15:44:46.361Z,66.85
2023-05-19T15:47:14.433Z,66.86
2023-05-19T15:49:42.559Z,66.96
2023-05-19T15:52:11.021Z,71.01
2023-05-19T15:54:40.924Z,69.73
2023-05-19T15:57:09.298Z,67.30
2023-05-19T15:59:37.815Z,68.98
2023-05-19T16:02:06.087Z,66.60
2023-05-19T16:04:34.539Z,63.90
2023-05-19T16:07:02.603Z,68.51
2023-05-19T16:09:30.768Z,70.10
2023-05-19T16:11:59.159Z,68.66
2023-05-19T16:14:31.137Z,70.23
2023-05-19T16:17:00.871Z,68.27
2023-05-19T16:19:30.624Z,69.45
2023-05-19T16:22:00.772Z,75.18
2023-05-19T16:24:29.920Z,72.66
2023-05-19T16:26:59.248Z,69.00
2023-05-19T16:29:27.675Z,72.25
2023-05-19T16:31:55.995Z,73.89
2023-05-19T16:34:27.487Z,73.05
2023-05-19T16:36:57.527Z,70.27
2023-05-19T16:39:26.124Z,69.71
2023-05-19T16:41:54.213Z,70.40
2023-05-19T16:44:24.656Z,70.08
2023-05-19T16:46:52.755Z,71.71
2023-05-19T16:49:21.179Z,70.90
2023-05-19T16:51:49.830Z,69.54
2023-05-19T16:54:18.106Z,69.76
2023-05-19T16:56:46.460Z,72.41
2023-05-19T16:59:14.964Z,71.88
2023-05-19T17:01:43.738Z,69.52
2023-05-19T17:04:11.900Z,70.76
2023-05-19T17:06:40.401Z,72.06
2023-05-19T17:09:08.598Z,71.00
2023-05-19T17:11:36.743Z,69.86
2023-05-19T17:14:08.162Z,69.23
2023-05-19T17:16:36.870Z,69.34
2023-05-19T17:19:05.305Z,71.15
2023-05-19T17:21:33.736Z,75.37
2023-05-19T17:24:01.746Z,77.22
2023-05-19T17:26:31.006Z,77.78
2023-05-19T17:28:59.147Z,82.89
2023-05-19T17:31:27.588Z,82.92
2023-05-19T17:33:56.236Z,84.29
2023-05-19T17:36:24.544Z,85.64
2023-05-19T17:38:52.753Z,87.98
2023-05-19T17:41:21.909Z,88.73
2023-05-19T17:43:50.092Z,91.35
2023-05-19T17:46:18.297Z,93.38
2023-05-19T17:48:46.908Z,94.68
2023-05-19T17:51:15.115Z,95.76
2023-05-19T17:53:43.530Z,95.59
2023-05-19T17:56:12.842Z,95.91
2023-05-19T17:58:41.547Z,96.94
2023-05-19T18:01:10.005Z,99.03
2023-05-19T18:03:38.994Z,99.11
2023-05-19T18:06:08.031Z,98.55
2023-05-19T18:08:38.623Z,100.00
2023-05-19T18:11:10.231Z,100.00
2023-05-19T18:13:39.255Z,97.75
2023-05-19T18:16:07.859Z,97.34
2023-05-19T18:18:37.607Z,98.24
2023-05-19T18:21:06.641Z,95.57
2023-05-19T18:23:35.080Z,91.98
2023-05-19T18:26:03.420Z,97.36
2023-05-19T18:28:31.573Z,99.79
2023-05-19T18:31:01.244Z,100.00
2023-05-19T18:33:30.932Z,100.00
2023-05-19T18:35:59.862Z,100.00
2023-05-19T18:38:28.045Z,100.00
2023-05-19T18:40:56.871Z,100.00
2023-05-19T18:43:25.371Z,100.00
2023-05-19T18:45:53.498Z,100.00
2023-05-19T18:48:22.756Z,100.00
2023-05-19T18:50:51.794Z,100.00
2023-05-19T18:53:21.859Z,100.00
2023-05-19T18:55:50.233Z,100.00
2023-05-19T18:58:18.932Z,100.00
2023-05-19T19:00:47.234Z,100.00
2023-05-19T19:03:16.035Z,100.00
2023-05-19T19:05:46.143Z,100.00
2023-05-19T19:08:14.253Z,100.00
2023-05-19T19:10:42.905Z,100.00
2023-05-19T19:13:11.429Z,100.00
2023-05-19T19:15:39.818Z,100.00
2023-05-19T19:18:08.486Z,100.00
2023-05-19T19:20:37.024Z,100.00
2023-05-19T19:23:06.756Z,100.00
2023-05-19T19:25:35.506Z,100.00
2023-05-19T19:28:04.076Z,100.00
2023-05-19T19:30:32.471Z,100.00
2023-05-19T19:33:01.314Z,100.00
2023-05-19T19:35:29.952Z,100.00
2023-05-19T19:37:58.698Z,100.00
2023-05-19T19:40:27.232Z,100.00
2023-05-19T19:42:55.698Z,100.00
2023-05-19T19:45:24.120Z,100.00
2023-05-19T19:47:52.746Z,100.00
2023-05-19T19:50:21.448Z,100.00
2023-05-19T19:52:49.623Z,100.00
2023-05-19T19:55:17.829Z,100.00
2023-05-19T19:57:49.126Z,100.00
2023-05-19T20:00:18.321Z,100.00
2023-05-19T20:05:20.299Z,100.00
2023-05-19T20:07:48.790Z,100.00
2023-05-19T20:10:17.048Z,100.00
2023-05-19T20:12:47.527Z,100.00
2023-05-19T20:15:16.427Z,100.00
2023-05-19T20:17:44.585Z,100.00
2023-05-19T20:20:13.185Z,100.00
2023-05-19T20:22:41.851Z,100.00
2023-05-19T20:25:10.008Z,100.00
2023-05-19T20:27:38.172Z,100.00
2023-05-19T20:30:07.662Z,100.00
2023-05-19T20:32:36.024Z,100.00
2023-05-19T20:35:04.455Z,100.00
2023-05-19T20:37:32.993Z,100.00
2023-05-19T20:40:01.339Z,100.00
2023-05-19T20:42:29.629Z,100.00
2023-05-19T20:44:58.961Z,100.00
2023-05-19T20:47:30.269Z,100.00
2023-05-19T20:49:59.366Z,100.00
2023-05-19T20:52:27.485Z,100.00
2023-05-19T20:54:55.731Z,100.00
2023-05-19T20:57:24.748Z,100.00
2023-05-19T20:59:53.702Z,100.00
2023-05-19T21:02:21.868Z,100.00
2023-05-19T21:04:50.961Z,100.00
2023-05-19T21:07:19.086Z,100.00
2023-05-19T21:09:50.271Z,100.00
2023-05-19T21:12:21.246Z,100.00
2023-05-19T21:14:50.054Z,100.00
2023-05-19T21:17:19.114Z,100.00
2023-05-19T21:19:49.180Z,100.00
2023-05-19T21:22:18.976Z,100.00
2023-05-19T21:24:47.276Z,100.00
2023-05-19T21:27:15.996Z,100.00
2023-05-19T21:29:44.395Z,100.00
2023-05-19T21:32:12.574Z,100.00
2023-05-19T21:34:40.904Z,100.00
2023-05-19T21:37:09.298Z,100.00
2023-05-19T21:39:37.410Z,100.00
2023-05-19T21:42:06.529Z,100.00
2023-05-19T21:44:34.817Z,100.00
2023-05-19T21:47:02.947Z,100.00
2023-05-19T21:49:31.732Z,100.00
2023-05-19T21:52:00.324Z,100.00
2023-05-19T21:54:28.417Z,100.00
2023-05-19T21:56:56.722Z,100.00
2023-05-19T21:59:26.316Z,100.00
2023-05-19T22:01:54.734Z,100.00
2023-05-19T22:04:23.313Z,100.00
2023-05-19T22:06:51.549Z,100.00
2023-05-19T22:09:19.774Z,100.00
2023-05-19T22:11:48.305Z,100.00
2023-05-19T22:14:16.807Z,100.00
2023-05-19T22:16:45.024Z,100.00
2023-05-19T22:19:14.774Z,100.00
2023-05-19T22:21:42.946Z,100.00
2023-05-19T22:24:11.119Z,100.00
2023-05-19T22:26:42.941Z,100.00
2023-05-19T22:29:15.192Z,100.00
2023-05-19T22:31:43.773Z,100.00
2023-05-19T22:34:15.478Z,100.00
2023-05-19T22:36:46.108Z,100.00
2023-05-19T22:39:14.458Z,100.00
2023-05-19T22:41:42.558Z,100.00
2023-05-19T22:44:13.204Z,100.00
2023-05-19T22:46:41.938Z,100.00
2023-05-19T22:49:10.792Z,100.00
2023-05-19T22:51:40.085Z,100.00
2023-05-19T22:54:08.270Z,100.00
2023-05-19T22:56:36.709Z,100.00
2023-05-19T22:59:04.923Z,100.00
2023-05-19T23:01:33.097Z,100.00
2023-05-19T23:04:01.671Z,100.00
2023-05-19T23:06:31.488Z,100.00
2023-05-19T23:09:02.068Z,100.00
2023-05-19T23:11:30.900Z,100.00
2023-05-19T23:13:59.198Z,100.00
2023-05-19T23:16:27.371Z,100.00
2023-05-19T23:18:55.938Z,100.00
2023-05-19T23:21:24.211Z,100.00
2023-05-19T23:23:52.466Z,100.00
2023-05-19T23:26:21.392Z,100.00
2023-05-19T23:28:49.942Z,100.00
2023-05-19T23:31:18.244Z,100.00
2023-05-19T23:33:46.722Z,100.00
2023-05-19T23:36:16.929Z,100.00
2023-05-19T23:38:45.541Z,100.00
2023-05-19T23:41:13.998Z,100.00
2023-05-19T23:43:42.216Z,100.00
2023-05-19T23:46:10.720Z,100.00
2023-05-19T23:48:39.442Z,100.00
2023-05-19T23:51:07.950Z,100.00
2023-05-19T23:53:36.681Z,100.00
2023-05-19T23:56:05.260Z,100.00
2023-05-19T23:58:33.528Z,100.00
